Time;durP1;ratioP1;P1;durP2;ratioP2;P2;SDS_P1;SDS_P2;PMS_P1;PMS_P2;Temp;Humidity;BMP_temperature;BMP_pressure;BME280_temperature;BME280_humidity;BME280_pressure;Samples;Min_cycle;Max_cycle;Signal;HPM_P1;HPM_P2
2022/04/07 00:09:18;;;;;;;17.85;11.00;;;;;;;11.12;91.53;98430.77;739460;1153;114226;-79
2022/04/07 00:24:21;;;;;;;22.10;12.48;;;;;;;11.05;91.20;98414.95;739113;1153;115012;-79
2022/04/07 00:39:23;;;;;;;21.95;11.40;;;;;;;11.03;90.90;98397.76;740115;1155;115016;-80
2022/04/07 00:54:26;;;;;;;17.50;10.30;;;;;;;10.88;90.43;98387.30;739623;1152;115864;-78
2022/04/07 01:09:30;;;;;;;20.35;10.90;;;;;;;10.64;91.07;98370.88;739570;1153;115287;-78
2022/04/07 01:24:33;;;;;;;18.18;10.88;;;;;;;10.48;91.03;98345.66;739524;1153;114335;-78
2022/04/07 01:39:37;;;;;;;16.58;9.13;;;;;;;10.42;90.32;98336.70;739709;1155;115776;-77
2022/04/07 01:54:43;;;;;;;17.37;10.37;;;;;;;10.33;91.11;98317.62;738814;1153;114468;-78
2022/04/07 02:09:45;;;;;;;21.83;12.38;;;;;;;10.43;90.79;98317.36;739936;1154;115014;-81
2022/04/07 02:24:48;;;;;;;20.90;11.10;;;;;;;10.40;91.03;98298.55;739922;1153;114321;-78
2022/04/07 02:39:51;;;;;;;27.27;12.97;;;;;;;10.29;90.62;98274.42;739034;1155;115805;-77
2022/04/07 02:54:53;;;;;;;28.63;12.85;;;;;;;10.09;92.00;98284.63;739378;1153;114906;-76
2022/04/07 03:09:55;;;;;;;26.75;13.75;;;;;;;9.92;92.86;98273.51;739557;1155;115120;-79
2022/04/07 03:24:57;;;;;;;25.73;14.08;;;;;;;9.99;94.46;98263.15;738876;1153;114914;-78
2022/04/07 03:39:59;;;;;;;23.63;14.55;;;;;;;9.98;95.01;98243.18;740544;1154;115290;-77
2022/04/07 03:55:01;;;;;;;59.07;26.60;;;;;;;10.00;95.87;98235.94;739133;1155;114781;-76
2022/04/07 04:10:05;;;;;;;27.97;16.27;;;;;;;9.99;95.81;98226.48;739239;1153;115057;-78
2022/04/07 04:25:08;;;;;;;32.00;15.53;;;;;;;10.11;96.49;98237.31;739162;1155;114688;-78
2022/04/07 04:40:11;;;;;;;22.48;13.05;;;;;;;10.27;94.92;98234.47;739160;1153;115228;-79
2022/04/07 04:55:13;;;;;;;24.88;11.80;;;;;;;10.56;93.81;98219.71;739567;1152;114964;-78
2022/04/07 05:10:15;;;;;;;19.03;11.63;;;;;;;10.75;92.40;98228.77;739678;1152;114321;-80
2022/04/07 05:25:18;;;;;;;22.63;11.05;;;;;;;10.91;91.65;98238.20;739353;1153;115564;-79
2022/04/07 05:40:20;;;;;;;17.80;11.93;;;;;;;10.94;91.38;98237.02;738957;1153;115233;-76
2022/04/07 05:55:22;;;;;;;21.45;13.10;;;;;;;11.22;92.21;98212.66;739053;1153;115205;-79
2022/04/07 06:10:24;;;;;;;22.43;13.18;;;;;;;11.33;91.00;98188.50;740303;1155;115650;-76
2022/04/07 06:25:27;;;;;;;21.63;13.00;;;;;;;11.75;90.61;98149.16;739600;1153;114643;-76
2022/04/07 06:40:29;;;;;;;19.35;12.30;;;;;;;12.31;89.11;98149.00;740232;1154;115351;-79
2022/04/07 06:55:32;;;;;;;17.60;10.23;;;;;;;13.22;85.46;98141.55;739967;1153;115737;-75
2022/04/07 07:10:41;;;;;;;20.20;10.50;;;;;;;13.76;82.92;98121.17;740344;1153;115400;-74
2022/04/07 07:25:44;;;;;;;19.80;10.55;;;;;;;14.03;80.87;98121.08;739879;1153;116015;-73
2022/04/07 07:40:46;;;;;;;14.70;9.83;;;;;;;14.58;78.03;98114.46;740318;1155;114443;-73
2022/04/07 07:55:49;;;;;;;14.88;8.70;;;;;;;15.39;75.88;98112.77;739714;1153;114787;-78
2022/04/07 08:10:51;;;;;;;13.87;9.57;;;;;;;15.76;74.14;98075.76;739928;1153;115815;-85
2022/04/07 08:25:53;;;;;;;11.95;7.55;;;;;;;15.53;69.10;98071.14;740583;1153;114985;-85
2022/04/07 08:40:56;;;;;;;12.93;7.70;;;;;;;16.29;68.85;98060.23;739940;1153;114223;-85
2022/04/07 08:56:03;;;;;;;12.90;7.20;;;;;;;17.10;67.67;98042.02;739728;1153;116080;-85
2022/04/07 09:11:08;;;;;;;9.35;6.50;;;;;;;17.55;65.98;98031.77;739672;1155;114938;-81
2022/04/07 09:26:15;;;;;;;8.70;5.73;;;;;;;17.95;64.56;98009.75;740023;1155;115066;-84
2022/04/07 09:41:21;;;;;;;10.48;6.55;;;;;;;17.73;63.75;97991.81;739890;1153;115138;-76
2022/04/07 09:56:30;;;;;;;9.55;6.90;;;;;;;17.82;62.30;97975.55;739679;1155;115999;-74
2022/04/07 10:11:33;;;;;;;10.03;5.33;;;;;;;17.58;61.27;97963.19;739555;1155;114958;-73
2022/04/07 10:26:39;;;;;;;11.18;5.05;;;;;;;17.37;61.23;97914.31;739418;1153;115358;-74
2022/04/07 10:41:41;;;;;;;8.03;5.70;;;;;;;18.17;59.79;97890.44;740182;1153;115125;-76
2022/04/07 10:56:49;;;;;;;15.33;6.37;;;;;;;17.63;59.56;97885.59;740797;1154;114112;-76
2022/04/07 11:11:55;;;;;;;12.90;5.10;;;;;;;17.36;58.76;97872.95;739486;1153;115088;-73
2022/04/07 11:27:33;;;;;;;7.63;4.70;;;;;;;17.79;59.91;97830.98;739537;1153;114441;-75
2022/04/07 11:42:37;;;;;;;11.48;5.38;;;;;;;17.53;59.17;97808.58;740552;1153;114917;-87
2022/04/07 11:57:41;;;;;;;10.20;3.68;;;;;;;17.67;56.37;97786.01;739974;1153;114255;-76
2022/04/07 12:12:43;;;;;;;9.10;4.57;;;;;;;17.70;58.23;97758.21;739679;1153;115199;-91
2022/04/07 12:27:46;;;;;;;8.25;3.80;;;;;;;18.25;57.87;97748.60;740275;1155;114129;-89
2022/04/07 12:42:53;;;;;;;5.33;3.93;;;;;;;18.15;56.76;97716.66;740142;1154;115281;-90
2022/04/07 12:57:56;;;;;;;7.63;5.28;;;;;;;17.65;57.40;97699.81;740409;1155;114025;-88
2022/04/07 13:13:06;;;;;;;7.48;4.78;;;;;;;17.36;57.68;97673.44;742498;1155;114950;-79
2022/04/07 13:28:09;;;;;;;10.33;6.68;;;;;;;17.78;56.07;97633.97;739935;1155;114813;-79
2022/04/07 13:43:11;;;;;;;10.38;6.28;;;;;;;18.27;54.24;97587.31;739402;1155;115677;-78
2022/04/07 13:58:14;;;;;;;7.00;3.53;;;;;;;17.68;54.92;97564.91;739557;1154;115221;-77
2022/04/07 14:13:18;;;;;;;17.90;5.75;;;;;;;17.53;54.44;97530.30;739622;1155;115697;-77
2022/04/07 14:28:20;;;;;;;12.78;7.25;;;;;;;18.99;52.54;97492.31;739568;1153;114576;-78
2022/04/07 14:43:24;;;;;;;5.08;2.48;;;;;;;18.48;53.08;97460.12;739416;1153;114815;-77
2022/04/07 14:58:27;;;;;;;7.18;3.55;;;;;;;18.41;52.39;97421.32;739874;1153;115337;-78
2022/04/07 15:13:29;;;;;;;10.70;3.80;;;;;;;18.10;53.07;97375.21;739434;1154;115186;-78
2022/04/07 15:28:32;;;;;;;7.50;3.10;;;;;;;17.52;54.04;97341.33;739700;1155;114188;-76
2022/04/07 15:43:38;;;;;;;11.30;2.60;;;;;;;17.18;55.20;97317.70;740078;1153;114870;-77
2022/04/07 15:58:41;;;;;;;8.48;2.95;;;;;;;17.03;55.94;97296.39;740244;1153;115086;-77
2022/04/07 16:13:44;;;;;;;7.08;3.93;;;;;;;16.85;57.12;97252.48;740363;1155;114871;-77
2022/04/07 16:29:07;;;;;;;18.10;9.05;;;;;;;16.68;57.58;97224.28;739562;1153;114144;-76
2022/04/07 16:44:09;;;;;;;18.35;6.23;;;;;;;16.56;58.00;97207.73;740201;1153;115839;-88
2022/04/07 16:59:12;;;;;;;42.33;19.20;;;;;;;16.43;58.05;97159.47;740761;1153;115680;-74
2022/04/07 17:14:15;;;;;;;9.95;4.40;;;;;;;16.21;58.54;97198.38;741636;1153;116046;-74
2022/04/07 17:29:17;;;;;;;6.17;2.07;;;;;;;16.05;58.78;97161.16;741105;1153;114251;-74
2022/04/07 17:44:19;;;;;;;12.45;5.20;;;;;;;15.51;63.05;97158.34;740537;1155;114906;-74
2022/04/07 17:59:22;;;;;;;12.75;5.13;;;;;;;15.19;64.06;97091.09;741129;1155;115555;-74
2022/04/07 18:14:24;;;;;;;15.25;5.98;;;;;;;15.11;65.02;97065.09;740296;1154;114973;-74
2022/04/07 18:29:27;;;;;;;9.20;3.43;;;;;;;15.43;63.50;97028.28;739851;1155;115743;-73
2022/04/07 18:44:30;;;;;;;17.38;5.78;;;;;;;15.58;62.24;96995.17;740362;1155;114916;-75
2022/04/07 18:59:33;;;;;;;11.25;3.05;;;;;;;15.42;62.92;97016.12;740029;1154;115053;-73
2022/04/07 19:14:36;;;;;;;7.58;2.68;;;;;;;14.72;70.37;97055.30;740255;1153;115479;-74
2022/04/07 19:29:40;;;;;;;13.05;3.28;;;;;;;13.40;82.32;97058.73;740245;1153;115369;-75
2022/04/07 19:44:43;;;;;;;6.28;1.68;;;;;;;12.72;90.86;97029.38;740636;1154;114201;-75
2022/04/07 19:59:46;;;;;;;4.98;1.85;;;;;;;10.98;91.94;97128.70;740657;1152;115736;-74
2022/04/07 20:14:50;;;;;;;5.58;2.35;;;;;;;10.40;94.11;97093.84;740237;1155;114896;-73
2022/04/07 20:29:53;;;;;;;4.23;1.50;;;;;;;10.22;96.96;97081.41;740467;1153;115477;-79
2022/04/07 20:44:55;;;;;;;4.43;1.80;;;;;;;10.07;96.69;97097.42;740127;1155;114545;-79
2022/04/07 20:59:58;;;;;;;4.30;2.55;;;;;;;9.85;97.88;97138.02;739832;1153;115881;-79
2022/04/07 21:15:00;;;;;;;4.58;1.50;;;;;;;9.71;97.78;97138.04;740098;1155;115170;-73
2022/04/07 21:30:03;;;;;;;3.80;1.68;;;;;;;9.60;98.29;97154.40;739942;1155;115048;-73
2022/04/07 21:45:05;;;;;;;3.05;1.80;;;;;;;9.44;97.81;97174.75;740126;1152;115417;-74
2022/04/07 22:00:11;;;;;;;4.20;2.35;;;;;;;9.33;98.03;97180.62;740622;1153;115396;-73
2022/04/07 22:15:13;;;;;;;6.80;2.45;;;;;;;9.15;99.35;97196.92;740320;1152;114930;-73
2022/04/07 22:30:15;;;;;;;3.45;2.23;;;;;;;9.07;98.81;97228.50;740453;1153;114906;-72
2022/04/07 22:45:19;;;;;;;4.05;2.48;;;;;;;9.05;98.96;97209.58;739770;1153;114464;-72
2022/04/07 23:00:21;;;;;;;4.80;2.70;;;;;;;8.99;100.00;97196.30;739755;1153;115312;-73
2022/04/07 23:15:24;;;;;;;4.55;3.03;;;;;;;9.04;100.00;97187.88;739751;1153;115528;-73
2022/04/07 23:30:27;;;;;;;6.25;3.53;;;;;;;9.10;99.13;97196.71;739420;1153;115244;-74
2022/04/07 23:45:29;;;;;;;6.25;3.53;;;;;;;9.08;99.63;97188.25;739670;1154;113601;-74
